Logo AVAMET
Benvolgut visitant, si us plau, ingressa Recuperar contrasenya
AVAMET paisatges

Eslida

Dades diàries. Acumulats / Últims 30 dies disponibles

Data Temperatura (°C) Humitat rel. (%) Pressió rel. (hPa) Vent (km/h) Precipitació
Mínima Mitjana Màxima Amplitud
tèrmica
Mínima Mitjana Màxima Mínima Mitjana Màxima Predom. Mitjana Ràfega
màxima
Total
(mm)
Índex-n
Mínima Mitjana Màxima Mínima Mitjana Màxima n
0 a 1
P0 max
mm 5'
Dades mensuals acumulades fins l'últim dia disponible
05/2020 8,7 12,7 15,3 18,7 16,7 25,0 29,9 21,2 26 64 95 1.003 1.017 1.029   4,6 35,4 21,0
Dades anuals acumulades fins l'últim dia disponible
2020 -0,1 7,9 15,3 12,8 7,3 18,8 29,9 30,0 6 69 97 998 1.021 1.035   4,1 70,8 471,8
Últims 30 dies disponibles
31-05-2020 12,3     18,8     25,7 13,4 31 57 71 1.013 1.015 1.017 SSO 5,6 27,4 0,0
30-05-2020 12,6     19,1     25,7 13,1 39 56 75 1.014 1.016 1.018 WNW 4,3 27,4 0,0
29-05-2020 11,4     20,0     28,6 17,2 26 52 74 1.015 1.018 1.023 WNW 4,8 22,5 0,0
28-05-2020 12,4     18,5     24,9 12,5 37 64 85 1.022 1.025 1.028 WNW 4,8 22,5 0,0
27-05-2020 13,3     19,3     25,6 12,3 34 58 82 1.026 1.026 1.028 WNW 6,9 32,2 0,0
26-05-2020 13,8     18,8     24,7 10,9 42 71 95 1.025 1.027 1.028 WNW 3,7 19,3 0,2
25-05-2020 12,9     17,2     23,1 10,2 56 79 87 1.025 1.027 1.028 WNW 2,6 16,1 1,0
24-05-2020 15,3     19,2     22,7 7,4 61 72 83 1.027 1.028 1.029 ESE 4,2 20,9 0,0
23-05-2020 14,6     21,3     28,8 14,2 40 58 73 1.024 1.025 1.028 WNW 4,8 22,5 0,0
22-05-2020 15,1     22,2     29,8 14,7 37 57 75 1.021 1.023 1.026 WNW 4,8 24,1 0,0
21-05-2020 14,6     22,2     29,9 15,3 WNW 4,8 19,3 0,0
20-05-2020 14,5     21,3     28,3 13,8 67 70 72 1.016 1.017 1.018 WNW 5,5 24,1 0,0
19-05-2020 12,4     20,0     27,2 14,8 37 59 77 1.016 1.018 1.021 WNW 5,6 22,5 0,0
18-05-2020 11,3     17,8     24,4 13,1 45 64 81 1.020 1.021 1.023 WNW 5,5 25,7 0,0
17-05-2020 9,9     16,6     23,2 13,3 45 68 90 1.020 1.021 1.023 WNW 3,4 20,9 0,2
16-05-2020 13,1     15,9     20,6 7,5 54 73 90 1.016 1.017 1.020 WNW 3,7 24,1 0,0
15-05-2020 8,8     14,1     19,7 10,9 49 73 89 1.010 1.014 1.017 WNW 3,7 22,5 0,6
14-05-2020 11,4     13,6     16,7 5,3 56 76 88 1.004 1.006 1.010 WNW 2,9 22,5 17,2
13-05-2020 8,7     16,4     23,4 14,7 37 65 93 1.004 1.006 1.008 WNW 3,2 22,5 0,2
12-05-2020 13,4     16,2     20,4 7,0 53 68 90 1.008 1.009 1.011 WNW 4,2 27,4 1,4
11-05-2020 10,8     19,3     24,8 14,0 30 45 71 1.005 1.007 1.011 WNW 5,6 33,8 0,0
10-05-2020 12,7     17,8     23,9 11,2 26 63 89 1.003 1.005 1.010 WNW 4,3 32,2 0,2
09-05-2020 13,6     17,1     21,9 8,3 63 78 86 1.010 1.013 1.017 E 3,7 17,7 0,0
08-05-2020 11,9     17,2     22,6 10,7 50 71 85 1.016 1.018 1.020 WNW 4,7 24,1 0,0
07-05-2020 13,2     18,5     24,1 10,9 41 63 80 1.018 1.020 1.021 WNW 4,5 24,1 0,0
06-05-2020 13,7     19,6     26,0 12,3 37 63 82 1.016 1.017 1.019 WNW 5,0 29,0 0,0
05-05-2020 13,7     19,4     25,6 11,9 46 67 80 1.014 1.015 1.017 WNW 4,2 20,9 0,0
04-05-2020 12,0     18,9     26,1 14,1 55 68 81 1.015 1.016 1.019 WNW 5,3 25,7 0,0
03-05-2020 14,2     20,7     27,4 13,2 36 56 75 1.017 1.018 1.020 WNW 4,8 19,3 0,0
02-05-2020 14,3     22,6     29,3 15,0 28 50 76 1.017 1.018 1.019 WNW 6,0 30,6 0,0
Últims 13 mesos disponibles
04/2020 4,8 9,1 14,2 13,5 12,6 18,8 25,1 20,3 43 74 93 1.006 1.017 1.027 WNW 3,4 33,8 99,0
03/2020 2,4 7,4 13,9 11,8 8,3 16,4 24,3 21,9 36 66 90 1.006 1.018 1.028 WNW 4,6 70,8 198,6
02/2020 3,3 6,4 9,8 11,8 12,1 19,2 26,3 23,0 38 66 86 1.013 1.026 1.033 WNW 4,2 40,2 2,8
01/2020 -0,1 4,0 9,3 8,1 7,3 14,6 21,6 21,7 59 74 89 1.019 1.026 1.033 WNW 3,8 53,1 150,4
12/2019 1,8 7,1 16,1 11,1 9,9 16,3 22,4 20,6 42 68 99 1.001 1.019 1.034 WNW 4,6 61,2 154,1
11/2019 0,8 7,8 14,8 13,0 12,8 18,0 26,8 26,0 35 50 69 997 1.010 1.018 WNW 6,3 62,8 3,2
10/2019 6,3 12,5 17,8 17,4 14,6 23,8 32,6 26,3 40 66 87 1.007 1.017 1.023 WNW 4,0 46,7 30,8
09/2019 12,4 16,3 19,7 21,1 19,1 27,0 32,1 19,7 43 70 80 1.010 1.018 1.027 WNW 4,0 40,2 82,8
08/2019 15,3 18,3 21,5 23,9 20,4 29,8 37,6 22,3 48 66 84 1.011 1.016 1.021 WNW 4,6 54,7 23,4
07/2019 16,6 18,5 21,3 24,8 25,4 31,5 36,4 19,8 36 57 81 1.006 1.015 1.022 WNW 4,7 32,2 15,4
06/2019 7,5 13,9 19,3 20,8 21,0 27,5 38,7 31,2 27 57 74 1.009 1.016 1.022 WNW 5,0 43,5 0,0
05/2019 4,9 9,9 13,9 16,2 16,3 22,5 28,9 24,0 49 66 88 1.005 1.016 1.025 WNW 4,5 53,1 21,0
04/2019 3,3 7,8 12,4 13,1 13,4 18,7 28,1 24,8 43 64 92 1.000 1.013 1.026 WNW 5,0 66,0 201,4
Tots els anys disponibles
2019 -2,3 10,4 21,5 16,0 9,9 22,3 38,7 41,0 27 62 99 993 1.017 1.035 WNW 4,8 85,3 594,9
Temperatura (°C)
Humitat relativa (%)
Velocitat del vent i ràfega màxima (km/h)
Direcció del vent (°)
Pressió (hPa)
Precipitació (mm)
Nota sobre les dades: s'avisa a l'usuari de la provisionalitat i no oficialitat d'aquestes dades
Logo AVAMET blanc
Web allotjada a Sollutia
Llicència de Creative CommonsLa web d'AVAMET i els seus continguts estan subjectes a una llicència de
Reconeixement - No Comercial - Compartir igual
Últimes estacions: Xodos - la Vega (Soci), la Vall d'Alba - Centre (Ajuntament soci), Chera (Ajuntament soci) - - -